Time;durP1;ratioP1;P1;durP2;ratioP2;P2;SDS_P1;SDS_P2;PMS_P1;PMS_P2;Temp;Humidity;BMP_temperature;BMP_pressure;BME280_temperature;BME280_humidity;BME280_pressure;Samples;Min_cycle;Max_cycle;Signal;HPM_P1;HPM_P2
2023/12/08 00:01:09;;;;;;;6.13;4.33;;;21.40;56.50;;;;;;5011632;28;20402;-67
2023/12/08 00:03:35;;;;;;;5.30;4.53;;;21.40;56.50;;;;;;4995316;28;20172;-67
2023/12/08 00:06:00;;;;;;;5.10;4.50;;;21.30;56.40;;;;;;5012879;28;20283;-68
2023/12/08 00:08:26;;;;;;;7.53;4.70;;;21.30;56.40;;;;;;5012799;28;20173;-68
2023/12/08 00:10:52;;;;;;;5.10;4.17;;;21.40;56.50;;;;;;5013109;28;20172;-67
2023/12/08 00:13:17;;;;;;;6.23;4.90;;;21.30;56.40;;;;;;5011756;28;20717;-67
2023/12/08 00:15:43;;;;;;;5.37;4.67;;;21.30;56.40;;;;;;5012660;28;20196;-67
2023/12/08 00:18:08;;;;;;;5.30;4.50;;;21.30;56.40;;;;;;5011298;28;20223;-67
2023/12/08 00:20:34;;;;;;;5.30;4.70;;;21.30;56.40;;;;;;5011186;28;20214;-67
2023/12/08 00:23:00;;;;;;;6.83;4.90;;;21.30;56.40;;;;;;5011221;28;20175;-67
2023/12/08 00:25:25;;;;;;;6.43;4.60;;;21.30;56.40;;;;;;5010987;28;20266;-67
2023/12/08 00:27:51;;;;;;;5.13;4.60;;;21.30;56.40;;;;;;5011213;28;20180;-67
2023/12/08 00:30:17;;;;;;;4.23;3.63;;;21.30;56.40;;;;;;5010598;28;20287;-66
2023/12/08 00:32:42;;;;;;;5.73;4.80;;;21.30;56.40;;;;;;5012381;28;20183;-66
2023/12/08 00:35:08;;;;;;;5.67;4.83;;;21.30;56.40;;;;;;5012346;28;20551;-67
2023/12/08 00:37:34;;;;;;;4.53;3.70;;;21.30;56.40;;;;;;5011039;28;20164;-66
2023/12/08 00:40:00;;;;;;;4.93;3.77;;;21.30;56.40;;;;;;5012187;28;20294;-67
2023/12/08 00:42:26;;;;;;;5.30;4.80;;;21.30;56.40;;;;;;5012190;28;20495;-67
2023/12/08 00:44:52;;;;;;;4.97;4.47;;;21.30;56.40;;;;;;5012150;28;20624;-66
2023/12/08 00:47:17;;;;;;;6.00;4.50;;;21.30;56.40;;;;;;5010749;28;20426;-67
2023/12/08 00:49:43;;;;;;;6.53;4.77;;;21.40;56.50;;;;;;5012367;28;20574;-66
2023/12/08 00:52:09;;;;;;;7.27;4.77;;;21.30;56.40;;;;;;4994508;28;20164;-67
2023/12/08 00:54:34;;;;;;;4.87;3.97;;;21.30;56.40;;;;;;5010611;28;20184;-67
2023/12/08 00:57:01;;;;;;;5.87;4.60;;;21.30;56.40;;;;;;4994569;28;20196;-67
2023/12/08 00:59:27;;;;;;;5.50;4.63;;;21.30;56.40;;;;;;5010512;28;20211;-67
2023/12/08 01:01:52;;;;;;;6.20;4.70;;;21.30;56.40;;;;;;5012106;28;20407;-66
2023/12/08 01:04:18;;;;;;;5.17;4.40;;;21.30;56.40;;;;;;5010706;28;20650;-67
2023/12/08 01:06:43;;;;;;;5.57;4.93;;;21.30;56.40;;;;;;4994007;28;20188;-66
2023/12/08 01:09:09;;;;;;;6.70;4.60;;;21.30;56.40;;;;;;5011928;28;20249;-67
2023/12/08 01:11:35;;;;;;;5.27;3.97;;;21.30;56.40;;;;;;5011718;28;20245;-67
2023/12/08 01:14:01;;;;;;;5.60;4.37;;;21.30;56.40;;;;;;5011898;28;20526;-67
2023/12/08 01:16:26;;;;;;;5.70;5.00;;;21.30;56.40;;;;;;5010297;28;20658;-67
2023/12/08 01:18:52;;;;;;;5.00;3.93;;;21.30;56.40;;;;;;5011471;28;20180;-67
2023/12/08 01:21:17;;;;;;;4.60;3.97;;;21.30;56.40;;;;;;5011491;28;20634;-66
2023/12/08 01:23:43;;;;;;;5.23;4.40;;;21.30;56.40;;;;;;5010106;28;20177;-65
2023/12/08 01:26:09;;;;;;;5.20;4.03;;;21.30;56.40;;;;;;5009985;28;20667;-67
2023/12/08 01:28:35;;;;;;;4.33;3.53;;;21.30;56.40;;;;;;4977498;28;20303;-66
2023/12/08 01:31:03;;;;;;;4.40;4.00;;;21.30;56.50;;;;;;4994127;28;20208;-67
2023/12/08 01:33:28;;;;;;;4.07;3.67;;;21.30;56.50;;;;;;5010116;28;20438;-67
2023/12/08 01:35:54;;;;;;;6.07;4.20;;;21.30;56.40;;;;;;5011202;28;20427;-67
2023/12/08 01:38:20;;;;;;;5.00;4.13;;;21.30;56.40;;;;;;4993613;28;20188;-67
2023/12/08 01:40:46;;;;;;;5.70;3.80;;;21.30;56.50;;;;;;5009719;28;20532;-67
2023/12/08 01:43:12;;;;;;;4.57;3.93;;;21.30;56.40;;;;;;4993857;28;20172;-67
2023/12/08 01:45:39;;;;;;;4.57;4.17;;;21.30;56.50;;;;;;5011175;28;20439;-67
2023/12/08 01:48:05;;;;;;;4.60;3.80;;;21.30;56.40;;;;;;5009932;28;20639;-67
2023/12/08 01:50:31;;;;;;;4.30;3.87;;;21.30;56.40;;;;;;5011054;28;20415;-68
2023/12/08 01:52:57;;;;;;;5.00;4.17;;;21.30;56.40;;;;;;5010048;28;20430;-67
2023/12/08 01:55:23;;;;;;;4.43;3.97;;;21.30;56.40;;;;;;5010003;28;20439;-67
2023/12/08 01:57:50;;;;;;;4.03;3.63;;;21.30;56.40;;;;;;5009695;28;20180;-67
2023/12/08 02:00:16;;;;;;;5.90;4.10;;;21.30;56.40;;;;;;5009589;28;20454;-67
2023/12/08 02:02:43;;;;;;;4.23;3.77;;;21.30;56.40;;;;;;5010912;28;20410;-67
2023/12/08 02:05:09;;;;;;;4.63;3.83;;;21.30;56.40;;;;;;4993335;28;20435;-67
2023/12/08 02:07:35;;;;;;;3.67;3.33;;;21.30;56.40;;;;;;5009537;28;20419;-67
2023/12/08 02:10:02;;;;;;;5.40;3.93;;;21.30;56.40;;;;;;5009687;28;20506;-67
2023/12/08 02:12:28;;;;;;;4.37;3.73;;;21.30;56.40;;;;;;5009496;28;20426;-68
2023/12/08 02:14:54;;;;;;;4.20;3.80;;;21.30;56.40;;;;;;5009692;28;20419;-66
2023/12/08 02:17:26;;;;;;;5.47;4.10;;;21.30;56.40;;;;;;4993294;28;20180;-67
2023/12/08 02:19:54;;;;;;;3.50;2.90;;;21.30;56.50;;;;;;5010688;28;20243;-67
2023/12/08 02:22:23;;;;;;;3.93;3.37;;;21.30;56.40;;;;;;5009350;28;20450;-67
2023/12/08 02:24:49;;;;;;;4.03;3.63;;;21.30;56.40;;;;;;5010502;28;20470;-67
2023/12/08 02:27:15;;;;;;;4.10;3.70;;;21.30;56.40;;;;;;5010649;28;20438;-67
2023/12/08 02:29:41;;;;;;;4.43;3.40;;;21.30;56.40;;;;;;5010642;28;20180;-67
2023/12/08 02:32:34;;;;;;;4.70;3.80;;;21.30;56.40;;;;;;5009278;28;20422;-67
2023/12/08 02:35:04;;;;;;;5.23;3.80;;;21.30;56.40;;;;;;5007953;28;20192;-67
2023/12/08 02:37:37;;;;;;;4.20;3.60;;;21.30;56.50;;;;;;5010599;28;20403;-67
2023/12/08 02:40:07;;;;;;;5.47;4.63;;;21.30;56.40;;;;;;5010688;28;20551;-67
2023/12/08 02:42:34;;;;;;;4.03;3.63;;;21.30;56.40;;;;;;5010327;28;20502;-66
2023/12/08 02:44:59;;;;;;;4.13;3.73;;;21.30;56.40;;;;;;5010332;28;20408;-67
2023/12/08 02:47:25;;;;;;;5.17;4.10;;;21.30;56.40;;;;;;4992760;28;20426;-67
2023/12/08 02:49:51;;;;;;;4.50;3.83;;;21.30;56.40;;;;;;5009046;28;20180;-67
2023/12/08 02:52:17;;;;;;;4.60;3.83;;;21.30;56.40;;;;;;4994372;28;20415;-67
2023/12/08 02:54:42;;;;;;;4.60;3.73;;;21.30;56.40;;;;;;5013291;28;20274;-68
2023/12/08 02:57:08;;;;;;;4.43;3.93;;;21.30;56.40;;;;;;5012870;28;20214;-67
2023/12/08 02:59:33;;;;;;;4.50;3.93;;;21.30;56.50;;;;;;4996520;28;20204;-67
2023/12/08 03:01:59;;;;;;;4.57;4.13;;;21.30;56.40;;;;;;5014507;28;20203;-67
2023/12/08 03:04:25;;;;;;;3.97;3.67;;;21.30;56.40;;;;;;5012811;28;20658;-67
2023/12/08 03:06:50;;;;;;;4.50;3.67;;;21.30;56.40;;;;;;5013993;28;20754;-67
2023/12/08 03:09:16;;;;;;;4.30;3.27;;;21.30;56.40;;;;;;5012663;28;20176;-67
2023/12/08 03:11:42;;;;;;;3.90;3.30;;;21.30;56.40;;;;;;5012709;28;20188;-67
2023/12/08 03:14:07;;;;;;;4.43;3.83;;;21.30;56.50;;;;;;5013916;28;20562;-67
2023/12/08 03:16:33;;;;;;;4.10;3.57;;;21.30;56.50;;;;;;4996180;28;20211;-67
2023/12/08 03:18:58;;;;;;;4.57;3.37;;;21.30;56.50;;;;;;5013761;28;20256;-67
2023/12/08 03:21:24;;;;;;;3.40;3.10;;;21.30;56.50;;;;;;5013774;28;20635;-67
2023/12/08 03:23:50;;;;;;;4.53;3.63;;;21.30;56.50;;;;;;5014009;28;20239;-67
2023/12/08 03:26:17;;;;;;;3.97;3.60;;;21.30;56.50;;;;;;5013518;28;20454;-66
2023/12/08 03:28:43;;;;;;;3.60;3.30;;;21.30;56.50;;;;;;5012311;28;20423;-67
2023/12/08 03:31:25;;;;;;;3.77;3.43;;;21.30;56.40;;;;;;5013646;28;20411;-68
2023/12/08 03:33:51;;;;;;;3.70;3.40;;;21.30;56.40;;;;;;5012195;28;20180;-68
2023/12/08 03:36:17;;;;;;;3.90;3.37;;;21.30;56.50;;;;;;5013485;28;20925;-67
2023/12/08 03:38:43;;;;;;;3.97;3.57;;;21.30;56.50;;;;;;5012239;28;20279;-67
2023/12/08 03:41:09;;;;;;;3.40;3.10;;;21.30;56.50;;;;;;5012094;28;20208;-67
2023/12/08 03:43:35;;;;;;;3.67;3.30;;;21.30;56.50;;;;;;5012147;28;20173;-67
2023/12/08 03:46:00;;;;;;;4.50;3.33;;;21.30;56.50;;;;;;5013201;28;20445;-67
2023/12/08 03:48:27;;;;;;;5.43;4.03;;;21.30;56.50;;;;;;5011974;28;20254;-67
2023/12/08 03:50:52;;;;;;;3.47;2.77;;;21.30;56.50;;;;;;5011957;28;20627;-67
2023/12/08 03:53:18;;;;;;;4.37;3.20;;;21.30;56.50;;;;;;5013265;28;20418;-67
2023/12/08 03:55:44;;;;;;;3.90;3.50;;;21.30;56.40;;;;;;5013343;28;20204;-67
2023/12/08 03:58:09;;;;;;;3.90;3.50;;;21.30;56.50;;;;;;5011837;28;20184;-67
2023/12/08 04:00:35;;;;;;;3.57;3.10;;;21.30;56.50;;;;;;5012985;28;20283;-67
2023/12/08 04:03:00;;;;;;;3.23;2.93;;;21.30;56.50;;;;;;5012518;28;20168;-66
2023/12/08 04:05:26;;;;;;;3.57;3.23;;;21.30;56.50;;;;;;4994657;28;20220;-67
2023/12/08 04:07:51;;;;;;;3.63;3.17;;;21.30;56.50;;;;;;5013184;28;20176;-67
2023/12/08 04:10:17;;;;;;;4.07;2.93;;;21.30;56.50;;;;;;5011540;28;20671;-67
2023/12/08 04:12:43;;;;;;;4.00;3.23;;;21.30;56.50;;;;;;5011501;28;20192;-67
2023/12/08 04:15:09;;;;;;;3.30;3.00;;;21.30;56.50;;;;;;5012801;28;20204;-67
2023/12/08 04:17:34;;;;;;;4.10;3.70;;;21.30;56.50;;;;;;5012683;28;20176;-67
2023/12/08 04:20:00;;;;;;;3.40;3.10;;;21.30;56.50;;;;;;5011545;28;20216;-67
2023/12/08 04:22:26;;;;;;;3.53;3.17;;;21.30;56.40;;;;;;5012671;28;20662;-67
2023/12/08 04:24:52;;;;;;;3.70;3.17;;;21.30;56.50;;;;;;5011035;28;20195;-67
2023/12/08 04:27:18;;;;;;;3.23;2.90;;;21.30;56.50;;;;;;5011332;28;20407;-68
2023/12/08 04:29:43;;;;;;;5.43;4.00;;;21.30;56.40;;;;;;5011171;28;20203;-66
2023/12/08 04:32:09;;;;;;;3.90;3.50;;;21.30;56.40;;;;;;5012421;28;20184;-67
2023/12/08 04:34:35;;;;;;;3.50;3.20;;;21.30;56.40;;;;;;5012660;28;20184;-67
2023/12/08 04:37:00;;;;;;;3.50;3.10;;;21.30;56.40;;;;;;5010957;28;20668;-66
2023/12/08 04:39:26;;;;;;;4.03;3.60;;;21.30;56.40;;;;;;5010854;28;20211;-67
2023/12/08 04:41:51;;;;;;;4.30;3.77;;;21.30;56.40;;;;;;5010888;28;20168;-66
2023/12/08 04:44:17;;;;;;;3.53;3.23;;;21.30;56.40;;;;;;5012227;28;20249;-66
2023/12/08 04:46:43;;;;;;;3.60;3.30;;;21.30;56.40;;;;;;5010803;28;20239;-67
2023/12/08 04:49:08;;;;;;;4.03;2.97;;;21.30;56.50;;;;;;5012233;28;20181;-67
2023/12/08 04:51:35;;;;;;;3.47;3.00;;;21.30;56.40;;;;;;5012098;28;20501;-67
2023/12/08 04:54:01;;;;;;;3.53;2.73;;;21.30;56.40;;;;;;5011977;28;20179;-67
2023/12/08 04:56:27;;;;;;;3.17;2.83;;;21.30;56.40;;;;;;5010604;28;20526;-66
2023/12/08 04:58:52;;;;;;;3.30;3.00;;;21.30;56.40;;;;;;5010604;28;20502;-66
2023/12/08 05:01:18;;;;;;;3.40;2.73;;;21.30;56.40;;;;;;5010561;28;20698;-67
2023/12/08 05:03:44;;;;;;;3.30;2.90;;;21.30;56.40;;;;;;5010447;28;20187;-65
2023/12/08 05:06:10;;;;;;;3.20;2.90;;;21.30;56.40;;;;;;5010374;28;20188;-68
2023/12/08 05:08:36;;;;;;;3.23;2.77;;;21.30;56.40;;;;;;5011802;28;20663;-67
2023/12/08 05:11:01;;;;;;;4.03;3.23;;;21.30;56.40;;;;;;4994066;28;20918;-67
2023/12/08 05:13:27;;;;;;;3.20;2.90;;;21.30;56.40;;;;;;5011644;28;20419;-67
2023/12/08 05:15:52;;;;;;;3.40;2.90;;;21.30;56.40;;;;;;5009870;28;20204;-67
2023/12/08 05:18:18;;;;;;;6.10;3.10;;;21.30;56.40;;;;;;5010240;28;20199;-67
2023/12/08 05:20:44;;;;;;;3.87;3.20;;;21.30;56.40;;;;;;5011398;28;20247;-67
2023/12/08 05:23:09;;;;;;;3.10;2.70;;;21.30;56.40;;;;;;5011471;28;20260;-67
2023/12/08 05:25:35;;;;;;;2.73;2.50;;;21.30;56.50;;;;;;5011113;28;20204;-67
2023/12/08 05:28:01;;;;;;;3.13;2.83;;;21.30;56.50;;;;;;5011637;28;20222;-66
2023/12/08 05:30:27;;;;;;;3.33;3.00;;;21.30;56.50;;;;;;5009886;28;20176;-67
2023/12/08 05:32:53;;;;;;;2.80;2.33;;;21.30;56.50;;;;;;5010045;28;20922;-66
2023/12/08 05:35:19;;;;;;;2.90;2.60;;;21.30;56.50;;;;;;5009818;28;20439;-67
2023/12/08 05:37:45;;;;;;;3.90;2.80;;;21.20;56.40;;;;;;5009849;28;20922;-67
2023/12/08 05:40:11;;;;;;;4.20;3.03;;;21.20;56.40;;;;;;5011082;28;20720;-66
2023/12/08 05:42:37;;;;;;;4.27;3.37;;;21.20;56.40;;;;;;4993259;28;20172;-67
2023/12/08 05:45:03;;;;;;;4.00;3.10;;;21.20;56.40;;;;;;5009757;28;20789;-67
2023/12/08 05:47:29;;;;;;;3.00;2.77;;;21.20;56.30;;;;;;5003568;28;20183;-68
2023/12/08 05:49:54;;;;;;;3.67;2.73;;;21.20;56.30;;;;;;4990129;28;20411;-67
2023/12/08 05:52:20;;;;;;;3.80;2.70;;;21.20;56.40;;;;;;4989469;28;20559;-66
2023/12/08 05:54:46;;;;;;;3.90;3.30;;;21.20;56.40;;;;;;4988345;28;20173;-66
2023/12/08 05:57:11;;;;;;;2.90;2.60;;;21.20;56.30;;;;;;4989863;28;20750;-67
2023/12/08 05:59:37;;;;;;;5.80;2.50;;;21.20;56.20;;;;;;4989654;28;20200;-67
2023/12/08 06:02:02;;;;;;;3.57;2.97;;;21.20;56.30;;;;;;4990145;28;20181;-67
2023/12/08 06:04:28;;;;;;;3.10;2.53;;;21.20;56.30;;;;;;4990974;28;20169;-67
2023/12/08 06:06:54;;;;;;;3.00;2.70;;;21.20;56.30;;;;;;4991322;28;20192;-67
2023/12/08 06:09:19;;;;;;;3.30;2.63;;;21.20;56.30;;;;;;4991167;28;20188;-67
2023/12/08 06:11:45;;;;;;;3.13;2.83;;;21.20;56.30;;;;;;4989940;28;20562;-66
2023/12/08 06:14:10;;;;;;;3.90;3.20;;;21.20;56.20;;;;;;4991326;28;20239;-67
2023/12/08 06:16:36;;;;;;;3.17;2.47;;;21.20;56.20;;;;;;4991179;28;20585;-67
2023/12/08 06:19:04;;;;;;;2.97;2.60;;;21.20;56.20;;;;;;4990912;28;20216;-67
2023/12/08 06:21:30;;;;;;;3.20;2.57;;;21.20;56.20;;;;;;4991288;28;20180;-67
2023/12/08 06:23:56;;;;;;;4.27;3.00;;;21.20;56.30;;;;;;4990498;28;20427;-66
2023/12/08 06:26:22;;;;;;;3.23;2.37;;;21.20;56.20;;;;;;4988932;28;20716;-69
2023/12/08 06:28:47;;;;;;;2.67;2.47;;;21.20;56.30;;;;;;4990785;28;20181;-67
2023/12/08 06:31:13;;;;;;;3.77;2.87;;;21.30;56.40;;;;;;4990822;28;20498;-67
2023/12/08 06:33:39;;;;;;;2.87;2.40;;;21.20;56.40;;;;;;4990783;28;20192;-67
2023/12/08 06:36:05;;;;;;;3.00;2.67;;;21.30;56.50;;;;;;4973339;28;20656;-68
2023/12/08 06:38:31;;;;;;;2.77;2.27;;;21.30;56.50;;;;;;4990718;28;20204;-67
2023/12/08 06:40:56;;;;;;;3.03;2.63;;;21.30;56.50;;;;;;4990911;28;20499;-66
2023/12/08 06:43:22;;;;;;;3.70;2.60;;;21.30;56.50;;;;;;4989398;28;20279;-67
2023/12/08 06:45:48;;;;;;;2.80;2.60;;;21.30;56.50;;;;;;4990586;28;20251;-67
2023/12/08 06:48:13;;;;;;;3.20;2.67;;;21.30;56.50;;;;;;4989189;28;20173;-67
2023/12/08 06:50:39;;;;;;;2.83;2.27;;;21.30;56.50;;;;;;4989505;28;20234;-67
2023/12/08 06:53:04;;;;;;;3.43;2.50;;;21.30;56.50;;;;;;4990503;28;20176;-67
2023/12/08 06:55:30;;;;;;;2.83;2.40;;;21.30;56.50;;;;;;4972961;28;20203;-67
2023/12/08 06:57:56;;;;;;;3.90;3.20;;;21.30;56.50;;;;;;4989252;28;20188;-67
2023/12/08 07:00:22;;;;;;;3.10;2.80;;;21.30;56.50;;;;;;4989141;28;20214;-67
2023/12/08 07:02:47;;;;;;;3.10;2.80;;;21.30;56.40;;;;;;4989166;28;20935;-67
2023/12/08 07:05:19;;;;;;;3.23;2.90;;;21.30;56.50;;;;;;4972923;28;20193;-67
2023/12/08 07:07:46;;;;;;;2.57;2.37;;;21.30;56.50;;;;;;4990284;28;20145;-67
2023/12/08 07:10:12;;;;;;;2.73;2.10;;;21.30;56.50;;;;;;4973074;28;20430;-67
2023/12/08 07:12:37;;;;;;;2.53;2.33;;;21.30;56.40;;;;;;4990989;28;20412;-67
2023/12/08 07:15:04;;;;;;;2.80;2.17;;;21.40;56.50;;;;;;4972791;28;20494;-67
2023/12/08 07:17:29;;;;;;;3.93;2.93;;;21.30;56.40;;;;;;4972835;28;20714;-66
2023/12/08 07:19:55;;;;;;;3.37;2.83;;;21.30;56.40;;;;;;4990558;28;20448;-67
2023/12/08 07:22:20;;;;;;;2.97;2.60;;;21.40;56.50;;;;;;4990378;28;20613;-67
2023/12/08 07:24:46;;;;;;;2.87;2.57;;;21.40;56.50;;;;;;4990151;28;20185;-68
2023/12/08 07:27:12;;;;;;;2.97;2.67;;;21.40;56.50;;;;;;4990505;28;20165;-68
2023/12/08 07:29:37;;;;;;;3.10;2.70;;;21.40;56.50;;;;;;4988981;28;20260;-68
2023/12/08 07:32:03;;;;;;;3.17;2.60;;;21.40;56.50;;;;;;4989304;28;20636;-67
2023/12/08 07:34:29;;;;;;;2.77;2.43;;;21.40;56.50;;;;;;4989020;28;20200;-67
2023/12/08 07:36:54;;;;;;;4.20;2.57;;;21.40;56.50;;;;;;4990225;28;20456;-68
2023/12/08 07:39:20;;;;;;;3.03;2.60;;;21.40;56.40;;;;;;4993279;28;20200;-67
2023/12/08 07:41:46;;;;;;;2.90;2.33;;;21.40;56.50;;;;;;4993864;28;20502;-67
2023/12/08 07:44:11;;;;;;;2.53;2.27;;;21.40;56.50;;;;;;4976374;28;20169;-67
2023/12/08 07:46:37;;;;;;;3.03;2.63;;;21.40;56.40;;;;;;4992346;28;20220;-66
2023/12/08 07:49:03;;;;;;;4.10;2.10;;;21.40;56.50;;;;;;4992292;28;20272;-67
2023/12/08 07:51:29;;;;;;;3.27;2.50;;;21.40;56.50;;;;;;4976167;28;20983;-68
2023/12/08 07:53:54;;;;;;;3.00;2.30;;;21.40;56.50;;;;;;4993839;28;20188;-68
2023/12/08 07:56:22;;;;;;;2.70;2.27;;;21.40;56.40;;;;;;4992203;28;20729;-67
2023/12/08 07:58:48;;;;;;;2.30;2.10;;;21.40;56.50;;;;;;4993800;28;20177;-67
2023/12/08 08:01:14;;;;;;;2.80;1.80;;;21.40;56.40;;;;;;4993396;28;20448;-68
2023/12/08 08:03:39;;;;;;;3.03;2.73;;;21.40;56.40;;;;;;4993419;28;20423;-68
2023/12/08 08:06:05;;;;;;;2.40;2.20;;;21.40;56.40;;;;;;4993622;28;20201;-66
2023/12/08 08:08:32;;;;;;;1.87;1.77;;;21.40;56.40;;;;;;4975787;28;20181;-69
2023/12/08 08:10:58;;;;;;;2.40;2.07;;;21.40;56.30;;;;;;4993322;28;20701;-68
2023/12/08 08:13:24;;;;;;;2.43;2.23;;;21.40;56.30;;;;;;4993306;28;20424;-66
2023/12/08 08:15:49;;;;;;;2.10;1.90;;;21.40;56.30;;;;;;4993387;28;20361;-66
2023/12/08 08:18:15;;;;;;;3.40;2.87;;;21.40;56.30;;;;;;4993415;28;20188;-67
2023/12/08 08:20:41;;;;;;;2.60;2.40;;;21.40;56.30;;;;;;4993070;28;20682;-67
2023/12/08 08:23:07;;;;;;;2.80;2.23;;;21.40;56.30;;;;;;4991848;28;20177;-67
2023/12/08 08:25:33;;;;;;;2.50;2.30;;;21.40;56.30;;;;;;4959470;28;20216;-66
2023/12/08 08:28:00;;;;;;;2.77;2.33;;;21.40;56.30;;;;;;4993010;28;21033;-67
2023/12/08 08:30:26;;;;;;;4.50;2.30;;;21.40;56.20;;;;;;4991562;28;20227;-66
2023/12/08 08:32:52;;;;;;;2.70;2.40;;;21.40;56.20;;;;;;4975451;28;20417;-67
2023/12/08 08:35:17;;;;;;;2.17;1.97;;;21.40;56.30;;;;;;4992735;28;20840;-67
2023/12/08 08:37:43;;;;;;;2.93;2.70;;;21.40;56.30;;;;;;4975518;28;20283;-67
2023/12/08 08:40:09;;;;;;;2.70;2.03;;;21.40;56.30;;;;;;4992923;28;20246;-67
2023/12/08 08:42:36;;;;;;;3.10;2.37;;;21.40;56.80;;;;;;4975118;28;20532;-66
2023/12/08 08:45:05;;;;;;;2.87;2.50;;;21.40;56.30;;;;;;4992834;28;20570;-67
2023/12/08 08:47:31;;;;;;;2.40;2.13;;;21.40;56.30;;;;;;4975564;28;20419;-67
2023/12/08 08:49:57;;;;;;;3.53;2.70;;;21.40;56.30;;;;;;4991971;28;20532;-67
2023/12/08 08:52:23;;;;;;;2.30;2.10;;;21.40;56.30;;;;;;4992561;28;20486;-67
2023/12/08 08:54:49;;;;;;;2.33;2.13;;;21.40;56.30;;;;;;4991053;28;20327;-67
2023/12/08 08:57:15;;;;;;;2.77;2.13;;;21.30;56.20;;;;;;4992420;28;20640;-66
2023/12/08 08:59:41;;;;;;;2.77;2.30;;;21.40;56.30;;;;;;4992466;28;20306;-66
2023/12/08 09:02:07;;;;;;;2.60;2.40;;;21.30;56.20;;;;;;4992360;28;20444;-67
2023/12/08 09:04:33;;;;;;;2.43;2.23;;;21.30;56.30;;;;;;4992447;28;20192;-67
2023/12/08 09:06:58;;;;;;;3.27;2.30;;;21.30;56.20;;;;;;4992275;28;20200;-68
2023/12/08 09:09:24;;;;;;;2.57;2.10;;;21.40;56.30;;;;;;4992451;28;20422;-67
2023/12/08 09:11:50;;;;;;;2.50;2.30;;;21.40;56.30;;;;;;4990860;28;20199;-67
2023/12/08 09:14:15;;;;;;;2.43;2.20;;;21.30;56.30;;;;;;4974563;28;20265;-66
2023/12/08 09:16:41;;;;;;;3.00;2.00;;;21.30;56.30;;;;;;4992219;28;20196;-67
2023/12/08 09:19:06;;;;;;;1.87;1.70;;;21.40;56.30;;;;;;4990681;28;20181;-66
2023/12/08 09:21:32;;;;;;;2.67;2.20;;;21.30;56.20;;;;;;4990802;28;20207;-67
2023/12/08 09:23:58;;;;;;;3.70;2.40;;;21.30;56.20;;;;;;4958503;28;20173;-67
2023/12/08 09:26:24;;;;;;;2.33;2.13;;;21.30;56.20;;;;;;4974299;28;20244;-68
2023/12/08 09:28:49;;;;;;;2.17;1.80;;;21.30;56.30;;;;;;4990860;28;20169;-68
2023/12/08 09:31:16;;;;;;;3.10;2.33;;;21.40;56.30;;;;;;4992102;28;20533;-68
2023/12/08 09:33:44;;;;;;;2.70;2.30;;;21.30;56.30;;;;;;4991809;28;20696;-67
2023/12/08 09:36:10;;;;;;;2.60;1.90;;;21.30;56.30;;;;;;4990623;28;20439;-68
2023/12/08 09:38:35;;;;;;;3.40;2.47;;;21.30;56.30;;;;;;4991743;28;20466;-68
2023/12/08 09:41:04;;;;;;;2.30;1.80;;;21.30;56.30;;;;;;4991445;28;20193;-68
2023/12/08 09:43:38;;;;;;;2.77;2.10;;;21.30;56.40;;;;;;4991704;28;20640;-68
2023/12/08 09:46:04;;;;;;;2.23;1.90;;;21.30;56.30;;;;;;4991484;28;20419;-68
2023/12/08 09:48:33;;;;;;;2.50;1.97;;;21.30;56.40;;;;;;4991609;28;20412;-68
2023/12/08 09:51:01;;;;;;;2.40;2.00;;;21.30;56.40;;;;;;4990520;28;20938;-68
2023/12/08 09:53:27;;;;;;;1.67;1.57;;;21.30;56.40;;;;;;4990370;28;20423;-68
2023/12/08 09:55:53;;;;;;;2.67;2.30;;;21.30;56.60;;;;;;4990028;28;20428;-68
2023/12/08 09:58:22;;;;;;;2.30;2.10;;;21.30;56.40;;;;;;4990176;28;20891;-68
2023/12/08 10:00:48;;;;;;;2.27;1.90;;;21.30;56.40;;;;;;4990929;28;20997;-67
2023/12/08 10:03:14;;;;;;;2.20;1.97;;;21.30;56.40;;;;;;4990819;28;20954;-68
2023/12/08 10:05:40;;;;;;;2.00;1.90;;;21.30;56.40;;;;;;4991543;28;20960;-68
2023/12/08 10:08:08;;;;;;;2.13;1.80;;;21.30;56.40;;;;;;4991584;28;20448;-68
2023/12/08 10:10:34;;;;;;;2.50;2.10;;;21.30;56.40;;;;;;4991352;28;20189;-68
2023/12/08 10:13:00;;;;;;;2.37;1.70;;;21.30;56.40;;;;;;4991129;28;20451;-67
2023/12/08 10:15:26;;;;;;;2.10;1.60;;;21.30;56.40;;;;;;4989566;28;20463;-67
2023/12/08 10:17:52;;;;;;;2.10;1.60;;;21.30;56.40;;;;;;4991344;28;20816;-68
2023/12/08 10:20:22;;;;;;;2.07;1.87;;;21.30;56.40;;;;;;4991002;28;20201;-67
2023/12/08 10:22:53;;;;;;;2.83;2.40;;;21.30;56.50;;;;;;4991047;28;20173;-68
2023/12/08 10:25:21;;;;;;;2.47;1.80;;;21.30;56.40;;;;;;4989461;28;20459;-67
2023/12/08 10:27:56;;;;;;;2.43;1.90;;;21.30;56.40;;;;;;4991470;28;20462;-68
2023/12/08 10:30:24;;;;;;;2.30;2.03;;;21.30;57.00;;;;;;4991224;28;20404;-66
2023/12/08 10:32:50;;;;;;;2.30;1.87;;;21.30;56.40;;;;;;4991087;28;20412;-67
2023/12/08 10:35:16;;;;;;;1.90;1.60;;;21.30;56.40;;;;;;4989506;28;20491;-68
2023/12/08 10:37:43;;;;;;;2.03;1.67;;;21.30;56.40;;;;;;4989547;28;20258;-67
2023/12/08 10:40:15;;;;;;;2.27;1.93;;;21.30;56.40;;;;;;4991367;28;21001;-67
2023/12/08 10:42:45;;;;;;;3.60;2.00;;;21.30;56.50;;;;;;4992219;28;20907;-66
2023/12/08 10:45:11;;;;;;;2.07;1.67;;;21.30;56.40;;;;;;4991230;28;20428;-66
2023/12/08 10:47:40;;;;;;;2.23;1.80;;;21.30;56.40;;;;;;4990919;28;20564;-65
2023/12/08 10:50:08;;;;;;;4.10;2.73;;;21.30;56.40;;;;;;4991274;28;20985;-65
2023/12/08 10:52:37;;;;;;;2.00;1.80;;;21.30;57.00;;;;;;4989564;28;20793;-66
2023/12/08 10:55:07;;;;;;;2.30;1.90;;;21.30;56.40;;;;;;4989345;28;20417;-67
2023/12/08 10:57:34;;;;;;;2.37;1.93;;;21.30;56.50;;;;;;4990746;28;20423;-67
2023/12/08 11:00:19;;;;;;;2.20;1.90;;;21.30;56.40;;;;;;4990751;28;20460;-67
2023/12/08 11:02:49;;;;;;;2.33;1.60;;;21.30;56.40;;;;;;4975576;28;20416;-66
2023/12/08 11:05:23;;;;;;;2.60;1.83;;;21.30;56.40;;;;;;4989839;28;20794;-65
2023/12/08 11:07:51;;;;;;;2.20;1.60;;;21.30;56.50;;;;;;4989564;28;20399;-66
2023/12/08 11:10:18;;;;;;;2.07;1.63;;;21.30;56.40;;;;;;4989691;28;20772;-67
2023/12/08 11:12:53;;;;;;;2.20;1.57;;;21.30;56.40;;;;;;4991650;28;20894;-67
2023/12/08 11:15:21;;;;;;;2.20;1.50;;;21.30;56.40;;;;;;4994712;28;20455;-66
2023/12/08 11:17:57;;;;;;;2.07;1.73;;;21.30;56.40;;;;;;4993099;28;20412;-66
2023/12/08 11:20:24;;;;;;;3.90;2.10;;;21.30;56.40;;;;;;4994532;28;20448;-67
2023/12/08 11:22:50;;;;;;;2.53;2.00;;;21.30;56.40;;;;;;4994484;28;20415;-67
2023/12/08 11:25:23;;;;;;;2.47;2.00;;;21.30;56.40;;;;;;4994372;28;20448;-67
2023/12/08 11:28:20;;;;;;;5.03;2.20;;;21.30;56.40;;;;;;4994330;28;20408;-66
2023/12/08 11:30:54;;;;;;;7.03;2.17;;;21.30;56.40;;;;;;4993573;28;20400;-65
2023/12/08 11:33:26;;;;;;;3.40;2.17;;;21.30;56.40;;;;;;4976841;28;20475;-66
2023/12/08 11:35:52;;;;;;;8.27;3.13;;;21.30;56.40;;;;;;4993449;28;20451;-67
2023/12/08 11:38:28;;;;;;;5.97;3.10;;;21.30;57.00;;;;;;4994759;28;20412;-67
2023/12/08 11:40:56;;;;;;;5.17;3.10;;;21.30;56.40;;;;;;4994094;28;20463;-66
2023/12/08 11:43:23;;;;;;;9.90;5.03;;;21.30;56.40;;;;;;4994076;28;20412;-66
2023/12/08 11:45:50;;;;;;;11.20;5.20;;;21.30;56.40;;;;;;4993903;28;20522;-67
2023/12/08 11:48:15;;;;;;;12.37;5.23;;;21.30;56.50;;;;;;4993990;28;20449;-66
2023/12/08 11:50:41;;;;;;;7.43;4.10;;;21.30;56.50;;;;;;4993936;28;20432;-67
2023/12/08 11:53:07;;;;;;;8.33;4.57;;;21.30;56.50;;;;;;4993983;28;20173;-66
2023/12/08 11:55:32;;;;;;;9.60;4.90;;;21.30;56.50;;;;;;4993938;28;20264;-67
2023/12/08 11:58:01;;;;;;;8.40;5.10;;;21.30;56.50;;;;;;4994149;28;20640;-67
2023/12/08 12:00:28;;;;;;;8.20;4.87;;;21.30;56.50;;;;;;4993907;28;20535;-65
2023/12/08 12:02:56;;;;;;;10.47;4.13;;;21.30;56.50;;;;;;4994028;28;20409;-66
2023/12/08 12:05:22;;;;;;;8.83;3.37;;;21.30;56.50;;;;;;4993816;28;20451;-64
2023/12/08 12:07:53;;;;;;;12.20;5.70;;;21.30;56.50;;;;;;4992359;28;20866;-66
2023/12/08 12:10:25;;;;;;;9.70;5.17;;;21.30;56.50;;;;;;4993823;28;20507;-67
2023/12/08 12:12:59;;;;;;;7.90;4.73;;;21.30;56.50;;;;;;4992420;28;20444;-66
2023/12/08 12:15:25;;;;;;;12.27;5.77;;;21.30;56.50;;;;;;4993939;28;20432;-64
2023/12/08 12:17:51;;;;;;;11.77;6.00;;;21.30;56.60;;;;;;4993597;28;20498;-66
2023/12/08 12:20:17;;;;;;;9.90;4.73;;;21.30;56.50;;;;;;4993937;28;20452;-64
2023/12/08 12:22:43;;;;;;;11.33;5.03;;;21.30;56.50;;;;;;4993450;28;20518;-66
2023/12/08 12:25:10;;;;;;;13.00;4.87;;;21.30;56.60;;;;;;4990656;28;20547;-65
2023/12/08 12:27:45;;;;;;;11.17;5.47;;;21.30;56.50;;;;;;4993435;28;20177;-65
2023/12/08 12:30:10;;;;;;;10.17;4.83;;;21.30;56.50;;;;;;4993162;28;20424;-64
2023/12/08 12:32:37;;;;;;;10.97;4.93;;;21.30;56.60;;;;;;4992013;28;20486;-66
2023/12/08 12:35:03;;;;;;;10.53;5.20;;;21.30;56.50;;;;;;4993055;28;20409;-66
2023/12/08 12:37:29;;;;;;;10.60;4.63;;;21.30;56.50;;;;;;4993192;28;20412;-66
2023/12/08 12:39:56;;;;;;;7.90;3.53;;;21.30;56.50;;;;;;4993316;28;20460;-66
2023/12/08 12:42:22;;;;;;;8.97;3.90;;;21.30;56.50;;;;;;4992991;28;20416;-65